Time;durP1;ratioP1;P1;durP2;ratioP2;P2;SDS_P1;SDS_P2;PMS_P1;PMS_P2;Temp;Humidity;BMP_temperature;BMP_pressure;BME280_temperature;BME280_humidity;BME280_pressure;Samples;Min_cycle;Max_cycle;Signal;HPM_P1;HPM_P2
2022/12/02 00:00:23;;;;;;;119.57;45.53;;;;;;;1.20;95.21;96342.72;2042540;29;20056;-57
2022/12/02 00:01:25;;;;;;;120.38;45.80;;;;;;;1.10;95.36;96319.78;2042750;29;20051;-59
2022/12/02 00:02:28;;;;;;;139.98;48.95;;;;;;;1.25;95.27;96346.13;2042536;29;20055;-60
2022/12/02 00:03:29;;;;;;;130.77;47.20;;;;;;;1.20;95.35;96342.72;2034972;29;20052;-59
2022/12/02 00:04:30;;;;;;;155.75;53.47;;;;;;;1.22;95.52;96341.03;2034136;29;20056;-59
2022/12/02 00:05:32;;;;;;;150.43;49.53;;;;;;;1.25;95.43;96341.00;2042604;29;20056;-59
2022/12/02 00:06:33;;;;;;;141.27;46.30;;;;;;;1.26;95.49;96341.00;2042615;29;20059;-62
2022/12/02 00:07:35;;;;;;;137.18;48.10;;;;;;;1.19;95.42;96320.59;2043417;29;20071;-62
2022/12/02 00:08:36;;;;;;;162.15;50.70;;;;;;;1.28;95.42;96338.44;2042513;29;20554;-61
2022/12/02 00:09:37;;;;;;;142.07;48.20;;;;;;;1.28;95.44;96341.88;2041856;29;20059;-62
2022/12/02 00:10:40;;;;;;;136.65;48.33;;;;;;;1.22;95.45;96336.75;2042995;29;20071;-62
2022/12/02 00:11:41;;;;;;;144.05;47.22;;;;;;;1.24;95.50;96340.16;2042297;29;20186;-60
2022/12/02 00:12:42;;;;;;;138.27;49.08;;;;;;;1.21;95.38;96350.41;2034378;29;20055;-59
2022/12/02 00:13:43;;;;;;;141.27;49.10;;;;;;;1.21;95.37;96331.66;2041745;29;20051;-59
2022/12/02 00:14:44;;;;;;;152.68;48.83;;;;;;;1.24;95.34;96324.81;2042693;29;20488;-60
2022/12/02 00:16:21;;;;;;;151.98;51.58;;;;;;;1.26;95.34;96332.50;2041918;29;20058;-59
2022/12/02 00:17:23;;;;;;;138.02;46.22;;;;;;;1.27;95.21;96331.63;2032303;29;20419;-59
2022/12/02 00:18:24;;;;;;;120.07;44.95;;;;;;;1.24;95.26;96334.19;2042291;29;20055;-59
2022/12/02 00:19:25;;;;;;;131.77;48.08;;;;;;;1.18;95.25;96334.25;2043070;29;20035;-59
2022/12/02 00:20:26;;;;;;;124.82;46.15;;;;;;;1.24;95.52;96327.38;2043103;29;20052;-59
2022/12/02 00:21:27;;;;;;;116.40;45.17;;;;;;;1.27;95.28;96326.50;2042497;29;20055;-59
2022/12/02 00:22:29;;;;;;;122.32;46.17;;;;;;;1.23;95.10;96317.13;2043139;29;20047;-59
2022/12/02 00:23:31;;;;;;;128.65;46.70;;;;;;;1.29;94.95;96329.91;2043212;29;20047;-59
2022/12/02 00:24:32;;;;;;;128.07;46.45;;;;;;;1.28;95.18;96321.41;2043010;29;20066;-59
2022/12/02 00:25:33;;;;;;;135.05;45.95;;;;;;;1.27;95.02;96317.13;2042478;29;20058;-59
2022/12/02 00:26:34;;;;;;;147.68;46.05;;;;;;;1.31;95.13;96320.53;2042616;29;20062;-59
2022/12/02 00:27:35;;;;;;;167.95;51.75;;;;;;;1.27;95.24;96316.28;2043029;29;20051;-59
2022/12/02 00:28:36;;;;;;;120.07;43.55;;;;;;;1.23;95.55;96323.13;2042280;29;20519;-59
2022/12/02 00:29:37;;;;;;;132.48;47.47;;;;;;;1.26;95.28;96319.69;2041287;29;20431;-59
2022/12/02 00:30:39;;;;;;;134.55;46.20;;;;;;;1.19;95.50;96318.88;2041722;29;20066;-58
2022/12/02 00:31:42;;;;;;;116.40;46.30;;;;;;;1.15;95.46;96329.13;2042632;29;20066;-60
2022/12/02 00:32:43;;;;;;;136.95;46.45;;;;;;;1.18;95.46;96319.75;2042449;29;20066;-61
2022/12/02 00:33:44;;;;;;;137.07;45.88;;;;;;;1.22;95.28;96330.78;2042083;29;20129;-61
2022/12/02 00:34:47;;;;;;;124.30;46.53;;;;;;;1.22;95.42;96321.41;2042360;29;20047;-61
2022/12/02 00:35:48;;;;;;;134.00;46.47;;;;;;;1.06;95.44;96307.00;2042769;29;20055;-61
2022/12/02 00:36:49;;;;;;;130.30;47.70;;;;;;;1.15;95.37;96316.31;2043218;29;20074;-61
2022/12/02 00:37:51;;;;;;;109.47;44.88;;;;;;;1.02;95.53;96290.00;2041647;29;20067;-61
2022/12/02 00:38:52;;;;;;;128.10;46.28;;;;;;;1.04;95.27;96296.78;2041899;29;20063;-61
2022/12/02 00:39:53;;;;;;;117.18;45.70;;;;;;;1.25;95.45;96320.53;2041983;29;20117;-61
2022/12/02 00:40:55;;;;;;;116.38;45.83;;;;;;;1.26;95.21;96317.13;2042315;29;20058;-61
2022/12/02 00:41:56;;;;;;;113.57;44.25;;;;;;;1.18;95.23;96319.75;2042890;29;20074;-61
2022/12/02 00:46:30;;;;;;;115.07;44.67;;;;;;;1.12;95.36;96318.91;2041219;29;20107;-61
2022/12/02 00:46:57;;;;;;;113.70;41.63;;;;;;;1.07;95.44;96327.47;2042512;29;20164;-61
2022/12/02 00:47:59;;;;;;;111.40;43.85;;;;;;;1.05;95.41;96320.66;2041914;29;20071;-60
2022/12/02 00:49:12;;;;;;;106.93;43.00;;;;;;;1.07;95.59;96322.34;2041646;29;20486;-61
2022/12/02 00:50:14;;;;;;;105.40;42.63;;;;;;;1.12;95.74;96321.47;2042793;29;20403;-60
2022/12/02 00:51:15;;;;;;;109.35;43.05;;;;;;;1.17;95.28;96318.03;2041613;29;20047;-61
2022/12/02 00:52:16;;;;;;;112.88;44.33;;;;;;;1.10;95.53;96301.88;2041645;29;20063;-61
2022/12/02 00:53:17;;;;;;;119.88;45.88;;;;;;;1.24;95.54;96321.41;2042516;29;20515;-61
2022/12/02 00:54:18;;;;;;;108.88;43.60;;;;;;;1.22;95.62;96318.00;2042770;29;20052;-61
2022/12/02 00:55:19;;;;;;;104.90;44.10;;;;;;;1.22;95.29;96316.28;2041790;29;20060;-61
2022/12/02 00:56:21;;;;;;;106.65;42.70;;;;;;;1.25;94.99;96316.25;2034075;29;20063;-60
2022/12/02 00:57:23;;;;;;;102.90;41.88;;;;;;;1.13;95.26;96292.47;2034012;29;20083;-66
2022/12/02 00:58:27;;;;;;;112.88;44.13;;;;;;;1.28;95.01;96317.97;2034175;29;20056;-66
2022/12/02 00:59:28;;;;;;;104.40;42.35;;;;;;;1.17;94.98;96306.94;2041863;29;20470;-66
2022/12/02 01:00:29;;;;;;;107.97;44.13;;;;;;;1.06;94.91;96305.28;2041466;29;20056;-66
2022/12/02 01:01:30;;;;;;;110.10;43.97;;;;;;;1.10;95.08;96306.13;2042245;29;20055;-56
2022/12/02 01:02:31;;;;;;;107.60;43.90;;;;;;;1.09;94.86;96296.75;2042696;29;20043;-56
2022/12/02 01:03:32;;;;;;;105.15;41.88;;;;;;;1.18;95.05;96309.50;2042958;29;20460;-55
2022/12/02 01:04:33;;;;;;;107.00;41.75;;;;;;;1.19;95.06;96311.19;2042454;29;20047;-55
2022/12/02 01:05:34;;;;;;;105.60;42.88;;;;;;;1.13;94.70;96300.16;2041058;29;20072;-55
2022/12/02 01:06:36;;;;;;;118.80;45.38;;;;;;;1.01;94.71;96286.56;2034242;29;20056;-62
2022/12/02 01:07:37;;;;;;;134.40;46.13;;;;;;;1.13;95.05;96310.41;2041499;29;20055;-62
2022/12/02 01:08:38;;;;;;;131.60;45.65;;;;;;;1.07;95.19;96304.44;2042584;29;20051;-62
2022/12/02 01:09:39;;;;;;;127.05;45.17;;;;;;;1.09;95.56;96315.50;2041926;29;20130;-62
2022/12/02 01:10:40;;;;;;;132.75;47.17;;;;;;;1.13;95.29;96307.84;2042042;29;20059;-62
2022/12/02 01:11:42;;;;;;;129.18;46.35;;;;;;;1.00;95.35;96287.44;2042850;29;20044;-59
2022/12/02 01:12:44;;;;;;;128.90;45.55;;;;;;;1.07;95.44;96291.66;2041103;29;20078;-59
2022/12/02 01:13:45;;;;;;;125.75;45.17;;;;;;;1.17;95.29;96306.94;2042019;29;20055;-59
2022/12/02 01:14:49;;;;;;;110.93;44.05;;;;;;;1.20;95.28;96312.03;2042082;29;20059;-59
2022/12/02 01:15:50;;;;;;;111.03;42.60;;;;;;;1.10;94.94;96290.78;2042593;29;20077;-58
2022/12/02 01:16:51;;;;;;;109.85;43.78;;;;;;;1.17;94.92;96306.94;2041560;29;20056;-59
2022/12/02 01:17:52;;;;;;;98.05;41.05;;;;;;;1.07;94.63;96306.16;2042058;29;20232;-59
2022/12/02 01:18:54;;;;;;;102.90;40.88;;;;;;;1.03;95.13;96289.13;2042962;28;20380;-59
2022/12/02 01:19:55;;;;;;;123.78;45.47;;;;;;;1.02;95.31;96313.84;2042014;29;20043;-59
2022/12/02 01:20:56;;;;;;;111.70;42.20;;;;;;;1.01;95.79;96312.13;2041342;29;20055;-59
2022/12/02 01:21:57;;;;;;;113.82;43.95;;;;;;;1.02;96.02;96303.63;2042042;29;20052;-59
2022/12/02 01:22:58;;;;;;;114.80;45.20;;;;;;;0.91;96.42;96290.03;2041639;29;20451;-59
2022/12/02 01:23:59;;;;;;;123.00;46.17;;;;;;;1.05;96.15;96302.75;2041946;29;20048;-59
2022/12/02 01:25:00;;;;;;;107.32;43.83;;;;;;;1.02;95.88;96295.94;2049246;29;20062;-59
2022/12/02 01:26:02;;;;;;;119.82;42.85;;;;;;;0.90;95.83;96269.56;2049250;29;20047;-59
2022/12/02 01:27:03;;;;;;;122.95;44.22;;;;;;;0.92;95.95;96283.22;2042811;29;20039;-59
2022/12/02 01:28:04;;;;;;;119.40;45.55;;;;;;;1.10;95.77;96299.31;2042676;29;20047;-59
2022/12/02 01:29:06;;;;;;;115.80;42.00;;;;;;;1.15;95.62;96293.31;2042166;29;20055;-59
2022/12/02 01:30:08;;;;;;;111.50;42.13;;;;;;;1.14;95.50;96296.72;2042147;29;20047;-59
2022/12/02 01:31:09;;;;;;;105.38;42.38;;;;;;;1.13;95.43;96295.03;2042453;29;20055;-59
2022/12/02 01:32:10;;;;;;;110.75;43.17;;;;;;;1.07;95.33;96294.22;2042372;29;20055;-59
2022/12/02 01:33:11;;;;;;;107.47;41.17;;;;;;;1.05;95.71;96295.91;2042964;29;20365;-59
2022/12/02 01:34:13;;;;;;;109.20;42.08;;;;;;;1.08;95.24;96292.50;2042501;29;20055;-59
2022/12/02 01:35:14;;;;;;;109.47;43.10;;;;;;;1.14;95.22;96295.00;2042369;29;20389;-59
2022/12/02 01:36:15;;;;;;;114.88;43.20;;;;;;;1.18;95.11;96298.44;2042478;29;20055;-59
2022/12/02 01:37:16;;;;;;;103.35;40.38;;;;;;;1.21;95.13;96288.19;2042054;29;20063;-59
2022/12/02 01:38:17;;;;;;;105.90;42.25;;;;;;;1.23;95.06;96294.97;2041981;29;20048;-59
2022/12/02 01:39:18;;;;;;;118.65;44.03;;;;;;;1.23;94.85;96294.97;2042063;29;20047;-60
2022/12/02 01:40:19;;;;;;;114.57;42.90;;;;;;;1.22;94.98;96290.69;2041201;29;20056;-59
2022/12/02 01:41:21;;;;;;;113.32;44.45;;;;;;;1.03;95.05;96258.44;2033456;29;20056;-59
2022/12/02 01:42:22;;;;;;;128.80;44.95;;;;;;;1.05;95.34;96272.91;2026418;29;20390;-60
2022/12/02 01:43:23;;;;;;;139.60;46.15;;;;;;;1.11;95.10;96277.13;2033926;29;20095;-59
2022/12/02 01:44:24;;;;;;;135.40;45.78;;;;;;;1.20;95.11;96289.84;2042246;29;20506;-59
2022/12/02 01:45:25;;;;;;;141.70;46.13;;;;;;;1.23;95.10;96289.00;2042549;29;20039;-59
2022/12/02 01:46:27;;;;;;;126.25;43.30;;;;;;;1.23;95.25;96294.09;2041279;29;20055;-59
2022/12/02 01:47:28;;;;;;;135.98;46.47;;;;;;;1.17;95.21;96291.59;2041179;29;20456;-59
2022/12/02 01:48:29;;;;;;;116.95;45.78;;;;;;;1.12;95.21;96288.22;2041707;29;20143;-59
2022/12/02 01:49:30;;;;;;;130.88;44.30;;;;;;;1.03;95.55;96268.66;2041185;29;20067;-59
2022/12/02 01:50:31;;;;;;;114.22;45.00;;;;;;;1.10;95.42;96272.88;2041258;29;20060;-59
2022/12/02 01:51:32;;;;;;;111.45;41.53;;;;;;;1.09;95.59;96287.34;2041285;29;20491;-61
2022/12/02 01:52:33;;;;;;;105.95;42.17;;;;;;;1.07;95.58;96283.97;2041689;29;20048;-62
2022/12/02 01:53:34;;;;;;;112.00;43.53;;;;;;;1.07;95.56;96289.09;2041042;29;20047;-62
2022/12/02 01:54:36;;;;;;;102.72;40.33;;;;;;;1.02;95.81;96282.31;2042455;29;20125;-62
2022/12/02 01:55:37;;;;;;;109.50;41.83;;;;;;;1.00;95.48;96287.44;2042268;29;20515;-62
2022/12/02 01:56:38;;;;;;;110.38;44.90;;;;;;;0.90;95.76;96267.88;2041856;29;20060;-59
2022/12/02 01:57:39;;;;;;;101.93;44.35;;;;;;;0.91;95.79;96267.03;2034017;29;20060;-59
2022/12/02 01:58:40;;;;;;;108.18;42.35;;;;;;;1.04;95.97;96271.22;2033406;29;20056;-59
2022/12/02 01:59:41;;;;;;;106.45;43.67;;;;;;;1.17;95.57;96287.31;2041078;29;20062;-59
2022/12/02 02:00:42;;;;;;;115.07;44.28;;;;;;;1.19;95.84;96289.88;2040905;29;20051;-59
2022/12/02 02:01:43;;;;;;;103.80;42.58;;;;;;;1.21;95.70;96283.91;2041769;29;20066;-55
2022/12/02 02:02:45;;;;;;;121.65;46.20;;;;;;;1.21;95.59;96294.13;2042003;29;20063;-55
2022/12/02 02:03:46;;;;;;;124.65;46.95;;;;;;;1.18;95.67;96283.06;2042164;29;20408;-54
2022/12/02 02:04:47;;;;;;;109.68;44.97;;;;;;;1.22;95.48;96285.59;2042231;29;20058;-54
2022/12/02 02:05:49;;;;;;;111.10;43.97;;;;;;;1.13;95.49;96270.31;2042370;29;20055;-55
2022/12/02 02:06:51;;;;;;;112.70;44.20;;;;;;;1.27;95.58;96281.28;2042292;29;20059;-57
2022/12/02 02:07:53;;;;;;;111.00;44.90;;;;;;;1.22;95.51;96279.63;2041161;29;20086;-57
2022/12/02 02:08:55;;;;;;;118.75;45.63;;;;;;;1.21;95.09;96278.78;2033891;29;20044;-59
2022/12/02 02:09:56;;;;;;;118.68;45.35;;;;;;;1.20;94.98;96282.19;2033693;29;20079;-58
2022/12/02 02:10:57;;;;;;;122.22;46.13;;;;;;;1.19;95.22;96284.78;2033789;29;20044;-59
2022/12/02 02:11:58;;;;;;;122.18;45.92;;;;;;;1.15;95.36;96280.50;2034020;29;20055;-59
2022/12/02 02:13:00;;;;;;;119.78;45.42;;;;;;;1.18;95.86;96283.06;2033400;29;20459;-59
2022/12/02 02:14:02;;;;;;;131.02;46.60;;;;;;;1.22;95.67;96288.16;2041139;29;20055;-59
2022/12/02 02:15:04;;;;;;;120.80;46.63;;;;;;;1.16;95.69;96282.22;2048639;29;20051;-59
2022/12/02 02:16:06;;;;;;;119.18;45.55;;;;;;;1.18;95.81;96285.63;2041073;29;20054;-59
2022/12/02 02:17:07;;;;;;;117.85;44.92;;;;;;;1.19;95.84;96280.50;2025962;29;20060;-59
2022/12/02 02:18:08;;;;;;;115.00;44.58;;;;;;;1.28;96.00;96279.56;2041180;29;20067;-59
2022/12/02 02:19:11;;;;;;;121.70;45.47;;;;;;;1.29;95.44;96281.28;2041003;29;20051;-59
2022/12/02 02:20:16;;;;;;;117.57;44.58;;;;;;;1.13;95.89;96257.53;2025776;29;20452;-59
2022/12/02 02:21:20;;;;;;;128.98;46.92;;;;;;;1.08;95.34;96256.69;2026798;29;20048;-59
2022/12/02 02:22:36;;;;;;;110.10;43.05;;;;;;;1.01;95.73;96260.13;2018371;29;20493;-59
2022/12/02 02:23:38;;;;;;;113.78;43.17;;;;;;;1.17;95.57;96277.09;2021929;29;20413;-59
2022/12/02 02:24:39;;;;;;;109.10;42.75;;;;;;;1.17;95.62;96277.09;2025060;29;20065;-59
2022/12/02 02:25:45;;;;;;;122.57;46.08;;;;;;;1.16;95.98;96279.66;2033857;29;20064;-59
2022/12/02 02:26:47;;;;;;;119.00;44.50;;;;;;;1.14;95.68;96279.66;2041921;29;20055;-60
2022/12/02 02:28:06;;;;;;;121.90;46.35;;;;;;;1.16;95.91;96270.28;2040827;29;20055;-59
2022/12/02 02:29:07;;;;;;;;;;;;;;;1.24;95.81;96276.19;2036633;29;20056;-59
2022/12/02 02:30:08;;;;;;;115.15;43.22;;;;;;;1.15;95.74;96275.41;2041413;29;19915;-59
2022/12/02 02:31:09;;;;;;;115.80;43.30;;;;;;;1.16;95.72;96269.44;2033398;29;20059;-59
2022/12/02 02:32:14;;;;;;;116.15;44.17;;;;;;;1.09;95.42;96250.72;2026959;29;20048;-59
2022/12/02 02:33:15;;;;;;;112.70;44.35;;;;;;;1.25;95.64;96271.94;2041315;29;20051;-59
2022/12/02 02:34:16;;;;;;;117.22;44.13;;;;;;;1.20;95.41;96255.75;2040942;29;20522;-59
2022/12/02 02:35:17;;;;;;;115.25;43.58;;;;;;;1.17;95.50;96246.38;2040895;29;20071;-59
2022/12/02 02:36:18;;;;;;;115.35;44.50;;;;;;;1.25;95.50;96269.38;2041195;29;20056;-59
2022/12/02 02:37:20;;;;;;;111.95;44.67;;;;;;;1.28;95.42;96269.34;2040709;29;20058;-59
2022/12/02 02:38:22;;;;;;;124.18;45.53;;;;;;;1.19;95.21;96265.16;2040444;29;20091;-59
2022/12/02 02:39:24;;;;;;;112.47;45.83;;;;;;;1.17;95.40;96266.00;2041059;29;20055;-58
2022/12/02 02:40:25;;;;;;;124.57;46.65;;;;;;;1.20;95.42;96263.44;2033288;29;20139;-59
2022/12/02 02:41:28;;;;;;;118.38;46.72;;;;;;;1.18;95.35;96263.47;2018274;29;20438;-59
2022/12/02 02:42:29;;;;;;;114.47;44.75;;;;;;;1.19;95.41;96269.41;2033122;29;20064;-59
2022/12/02 02:43:30;;;;;;;111.45;45.75;;;;;;;1.21;95.47;96262.59;2041512;29;20056;-59
2022/12/02 02:44:32;;;;;;;113.47;44.83;;;;;;;1.16;95.37;96261.75;2041434;29;20519;-59
2022/12/02 02:45:34;;;;;;;112.32;44.53;;;;;;;1.02;95.46;96242.25;2041100;29;20058;-59
2022/12/02 02:46:37;;;;;;;122.75;47.20;;;;;;;1.24;95.39;96267.69;2033689;29;20055;-58
2022/12/02 02:47:38;;;;;;;109.78;44.25;;;;;;;1.22;95.71;96246.38;2025452;29;20417;-58
2022/12/02 02:48:39;;;;;;;117.25;46.25;;;;;;;1.29;95.44;96256.56;2041596;29;20051;-58
2022/12/02 02:49:40;;;;;;;111.65;44.40;;;;;;;1.29;95.14;96259.13;2041217;29;20056;-59
2022/12/02 02:50:42;;;;;;;116.57;46.33;;;;;;;1.20;95.03;96250.63;2033251;29;20060;-59
2022/12/02 02:51:43;;;;;;;109.50;43.40;;;;;;;1.22;95.20;96256.59;2032779;29;20060;-61
2022/12/02 02:52:44;;;;;;;110.28;45.63;;;;;;;1.23;95.29;96248.94;2025421;29;20127;-61
2022/12/02 02:53:45;;;;;;;111.78;43.63;;;;;;;1.21;94.88;96245.53;2041088;29;20431;-61
2022/12/02 02:54:47;;;;;;;109.95;42.17;;;;;;;1.19;94.93;96249.78;2033375;29;20074;-61
2022/12/02 02:55:49;;;;;;;105.97;43.28;;;;;;;1.06;95.15;96233.66;2032904;29;20060;-61
2022/12/02 02:56:50;;;;;;;110.70;44.70;;;;;;;1.22;95.02;96254.03;2041015;29;20519;-61
2022/12/02 02:57:52;;;;;;;112.63;45.25;;;;;;;1.28;95.32;96254.88;2040862;29;20051;-62
2022/12/02 02:58:53;;;;;;;105.53;42.53;;;;;;;1.29;95.00;96248.88;2040819;29;20051;-62
2022/12/02 02:59:54;;;;;;;108.22;42.90;;;;;;;1.30;94.74;96247.16;2040647;29;20047;-62
2022/12/02 03:00:59;;;;;;;107.78;42.40;;;;;;;1.18;94.77;96219.97;2048605;29;20058;-62
2022/12/02 03:02:00;;;;;;;114.25;44.78;;;;;;;1.25;94.47;96248.91;2033296;29;20056;-62
2022/12/02 03:03:01;;;;;;;104.68;42.72;;;;;;;1.29;94.45;96248.03;2010257;29;20069;-62
2022/12/02 03:04:05;;;;;;;102.45;41.00;;;;;;;1.26;94.47;96246.34;2010279;29;20055;-62
2022/12/02 03:05:06;;;;;;;104.72;42.63;;;;;;;1.25;94.50;96242.06;2018196;29;20053;-62
2022/12/02 03:06:07;;;;;;;103.38;43.78;;;;;;;1.16;94.28;96234.47;2017614;29;20071;-62
2022/12/02 03:07:09;;;;;;;97.07;41.92;;;;;;;1.14;94.42;96240.47;2025276;29;20048;-62
2022/12/02 03:08:10;;;;;;;112.07;44.10;;;;;;;1.23;94.26;96250.63;2041362;29;20058;-62
2022/12/02 03:09:12;;;;;;;107.38;43.30;;;;;;;1.23;94.75;96242.94;2048657;29;20055;-62
2022/12/02 03:10:13;;;;;;;109.38;44.45;;;;;;;1.26;94.58;96251.47;2041175;29;20039;-62
2022/12/02 03:11:14;;;;;;;103.97;41.38;;;;;;;1.22;94.72;96236.97;2033099;29;20063;-62
2022/12/02 03:12:16;;;;;;;114.20;44.25;;;;;;;1.28;95.22;96243.75;2041054;29;20044;-62
2022/12/02 03:13:17;;;;;;;98.10;41.50;;;;;;;1.27;94.65;96242.06;2041352;29;20480;-62
2022/12/02 03:14:18;;;;;;;109.20;43.05;;;;;;;1.22;94.44;96242.09;2040849;29;20052;-62
2022/12/02 03:15:22;;;;;;;98.60;41.90;;;;;;;1.25;94.75;96241.22;2033217;29;20040;-62
2022/12/02 03:16:23;;;;;;;96.63;42.00;;;;;;;1.30;94.59;96237.78;2033512;29;20060;-62
2022/12/02 03:17:24;;;;;;;99.65;41.92;;;;;;;1.33;94.35;96244.56;2040834;29;20063;-62
2022/12/02 03:18:25;;;;;;;97.22;42.88;;;;;;;1.29;94.25;96241.19;2025308;29;20385;-61
2022/12/02 03:19:28;;;;;;;103.20;43.40;;;;;;;1.20;94.32;96223.34;2032852;29;20070;-62
2022/12/02 03:20:29;;;;;;;109.30;42.47;;;;;;;1.26;94.14;96236.13;2032710;29;20059;-62
2022/12/02 03:21:32;;;;;;;105.30;41.28;;;;;;;1.29;94.28;96235.25;2032688;29;20052;-61
2022/12/02 03:22:33;;;;;;;99.00;41.38;;;;;;;1.23;94.38;96242.94;2041009;29;20056;-62
2022/12/02 03:23:34;;;;;;;101.55;41.33;;;;;;;1.09;94.40;96217.47;2033075;29;20064;-62
2022/12/02 03:24:35;;;;;;;114.10;44.80;;;;;;;1.21;94.40;96235.28;2033072;29;20159;-62
2022/12/02 03:25:36;;;;;;;119.32;45.22;;;;;;;1.17;94.71;96236.16;2033169;29;20424;-64
2022/12/02 03:26:38;;;;;;;114.68;44.50;;;;;;;1.02;94.80;96211.53;2033411;29;20043;-54
2022/12/02 03:27:39;;;;;;;113.45;44.58;;;;;;;1.22;94.82;96229.31;2041500;29;20059;-55
2022/12/02 03:28:40;;;;;;;117.93;44.85;;;;;;;1.26;94.54;96230.16;2041103;29;20062;-56
2022/12/02 03:29:41;;;;;;;106.03;42.70;;;;;;;1.22;94.45;96233.56;2041167;29;20055;-55
2022/12/02 03:30:42;;;;;;;109.55;42.42;;;;;;;1.13;94.35;96223.41;2040151;29;20062;-55
2022/12/02 03:31:44;;;;;;;109.25;42.90;;;;;;;1.22;94.47;96238.69;2024277;29;20060;-59
2022/12/02 03:32:45;;;;;;;95.90;40.58;;;;;;;1.08;94.30;96208.94;2032916;29;20059;-59
2022/12/02 03:33:46;;;;;;;101.97;42.58;;;;;;;1.20;94.57;96236.13;2041567;29;20056;-59
2022/12/02 03:34:47;;;;;;;98.43;41.92;;;;;;;1.13;94.52;96241.31;2041360;29;20407;-59
2022/12/02 03:35:48;;;;;;;100.60;42.17;;;;;;;1.17;94.18;96227.63;2041137;29;20059;-58
2022/12/02 03:36:49;;;;;;;106.65;41.92;;;;;;;1.20;94.18;96228.47;2041395;29;20055;-59
2022/12/02 03:37:50;;;;;;;104.72;43.03;;;;;;;1.22;94.08;96236.13;2041479;29;20063;-59
2022/12/02 03:38:51;;;;;;;101.43;41.17;;;;;;;1.24;94.43;96236.97;2040434;29;20056;-58
2022/12/02 03:39:53;;;;;;;104.72;41.15;;;;;;;1.21;94.30;96226.78;2033083;29;20444;-59
2022/12/02 03:40:54;;;;;;;99.30;41.35;;;;;;;1.24;94.38;96235.25;2041167;29;20047;-59
2022/12/02 03:41:55;;;;;;;106.35;42.38;;;;;;;1.26;94.14;96231.00;2041599;29;20043;-59
2022/12/02 03:42:56;;;;;;;105.88;41.83;;;;;;;1.25;94.26;96231.84;2041459;29;20060;-58
2022/12/02 03:43:57;;;;;;;107.55;41.90;;;;;;;1.25;94.26;96233.56;2041107;29;20047;-58
2022/12/02 03:44:58;;;;;;;108.00;42.80;;;;;;;1.28;94.61;96233.53;2040828;29;20047;-59
2022/12/02 03:45:59;;;;;;;122.50;43.88;;;;;;;1.28;94.44;96229.28;2032840;29;20052;-58
2022/12/02 03:47:00;;;;;;;117.00;44.45;;;;;;;1.32;94.54;96227.53;2033446;29;20151;-54
2022/12/02 03:48:01;;;;;;;127.13;46.42;;;;;;;1.33;94.60;96230.06;2040365;29;20051;-55
2022/12/02 03:49:03;;;;;;;122.68;45.15;;;;;;;1.35;94.62;96230.06;2040467;29;20052;-56
2022/12/02 03:50:04;;;;;;;115.93;43.75;;;;;;;1.33;94.60;96224.94;2033056;29;20036;-56
2022/12/02 03:51:05;;;;;;;116.80;43.90;;;;;;;1.33;94.65;96227.50;2040693;29;20047;-55
2022/12/02 03:52:07;;;;;;;112.03;44.55;;;;;;;1.32;94.53;96224.97;2041048;29;20460;-65
2022/12/02 03:53:08;;;;;;;118.82;44.92;;;;;;;1.25;94.78;96233.56;2041381;29;20063;-65
2022/12/02 03:54:10;;;;;;;118.30;45.40;;;;;;;1.08;94.87;96214.06;2041536;29;20051;-65
2022/12/02 03:55:11;;;;;;;107.95;43.15;;;;;;;1.05;95.06;96203.84;2041927;29;20048;-65
2022/12/02 03:56:12;;;;;;;105.93;43.10;;;;;;;1.18;95.18;96230.19;2040769;29;20070;-66
2022/12/02 03:57:13;;;;;;;108.68;42.58;;;;;;;1.11;95.18;96225.97;2032847;29;20063;-65
2022/12/02 03:58:15;;;;;;;114.85;44.92;;;;;;;1.14;95.56;96231.06;2025128;29;20057;-65
2022/12/02 03:59:20;;;;;;;112.85;42.60;;;;;;;1.15;95.40;96216.56;2032487;29;20055;-65
2022/12/02 04:00:21;;;;;;;108.65;42.38;;;;;;;1.20;95.21;96214.81;2041011;29;20070;-65
2022/12/02 04:01:23;;;;;;;114.75;44.75;;;;;;;1.24;95.34;96227.59;2041049;29;20059;-65
2022/12/02 04:02:24;;;;;;;121.57;43.80;;;;;;;1.21;94.82;96221.66;2041215;29;20056;-65
2022/12/02 04:03:25;;;;;;;112.88;44.13;;;;;;;1.22;95.06;96216.50;2041251;29;20060;-66
2022/12/02 04:04:26;;;;;;;117.43;44.65;;;;;;;1.28;94.94;96219.03;2041143;29;20056;-66
2022/12/02 04:05:27;;;;;;;104.63;42.50;;;;;;;1.25;95.03;96219.03;2041242;29;20060;-65
2022/12/02 04:06:28;;;;;;;115.78;46.17;;;;;;;1.22;95.21;96213.94;2041760;29;20137;-65
2022/12/02 04:07:29;;;;;;;104.60;42.33;;;;;;;1.19;95.44;96224.22;2041714;29;20062;-66
2022/12/02 04:08:30;;;;;;;109.25;43.13;;;;;;;1.17;95.29;96218.25;2044237;29;20046;-65
2022/12/02 04:09:31;;;;;;;119.03;46.20;;;;;;;1.20;95.45;96225.06;2041134;29;20059;-65
2022/12/02 04:10:32;;;;;;;120.13;43.58;;;;;;;1.21;95.71;96222.50;2041722;29;20047;-65
2022/12/02 04:11:34;;;;;;;120.45;46.92;;;;;;;1.24;95.53;96217.34;2040986;29;20051;-59
2022/12/02 04:12:35;;;;;;;115.70;45.15;;;;;;;1.26;95.49;96215.66;2041378;29;20358;-58
2022/12/02 04:13:36;;;;;;;113.25;43.85;;;;;;;1.21;95.22;96219.09;2041205;29;20056;-59
2022/12/02 04:14:37;;;;;;;113.20;45.22;;;;;;;1.19;95.32;96216.53;2041450;29;20063;-59
2022/12/02 04:15:38;;;;;;;115.07;44.78;;;;;;;1.19;95.44;96218.25;2041054;29;20420;-58
2022/12/02 04:16:39;;;;;;;112.22;43.63;;;;;;;1.18;95.23;96214.00;2041762;29;20050;-59
2022/12/02 04:17:40;;;;;;;109.82;41.58;;;;;;;1.22;95.15;96213.94;2041513;29;20043;-59
2022/12/02 04:18:41;;;;;;;114.78;45.92;;;;;;;1.22;95.14;96213.09;2041528;29;20421;-58
2022/12/02 04:19:42;;;;;;;116.68;44.70;;;;;;;1.26;95.19;96214.81;2041663;29;20059;-59
2022/12/02 04:20:43;;;;;;;128.60;47.70;;;;;;;1.14;95.17;96212.31;2041261;29;20060;-59
2022/12/02 04:21:45;;;;;;;111.28;44.42;;;;;;;1.03;95.46;96197.03;2041598;29;20055;-59
2022/12/02 04:22:46;;;;;;;116.00;45.83;;;;;;;1.14;95.73;96217.44;2040731;29;20064;-59
2022/12/02 04:23:47;;;;;;;113.43;45.80;;;;;;;1.15;95.74;96209.75;2040924;29;20059;-58
2022/12/02 04:24:48;;;;;;;125.45;46.95;;;;;;;1.11;96.29;96218.31;2041436;29;20055;-59
2022/12/02 04:25:49;;;;;;;120.90;45.85;;;;;;;1.15;95.85;96212.31;2041533;29;20437;-59
2022/12/02 04:26:50;;;;;;;119.88;45.80;;;;;;;1.09;95.90;96205.50;2041529;29;20056;-59
2022/12/02 04:27:51;;;;;;;110.15;42.85;;;;;;;1.19;95.69;96200.34;2040668;29;20055;-59
2022/12/02 04:28:52;;;;;;;118.20;45.33;;;;;;;1.27;95.59;96212.22;2040966;29;20620;-59
2022/12/02 04:29:54;;;;;;;126.28;47.08;;;;;;;1.27;95.39;96211.38;2041224;29;20055;-59
2022/12/02 04:30:55;;;;;;;116.40;45.22;;;;;;;1.24;95.16;96213.97;2041284;29;20059;-59
2022/12/02 04:31:56;;;;;;;111.13;45.10;;;;;;;1.21;95.13;96211.41;2041754;29;20039;-59
2022/12/02 04:32:57;;;;;;;115.03;45.63;;;;;;;1.08;95.09;96208.09;2041199;29;20056;-59
2022/12/02 04:33:58;;;;;;;115.72;43.88;;;;;;;1.13;95.09;96219.16;2040718;29;20380;-59
2022/12/02 04:34:59;;;;;;;106.25;44.80;;;;;;;1.10;95.35;96211.50;2041793;29;20059;-59
2022/12/02 04:36:00;;;;;;;116.95;45.40;;;;;;;1.12;95.13;96209.75;2041709;29;20042;-59
2022/12/02 04:37:01;;;;;;;120.80;44.25;;;;;;;1.07;95.37;96214.09;2041144;29;20514;-58
2022/12/02 04:38:02;;;;;;;117.68;46.38;;;;;;;1.04;95.23;96214.94;2041216;29;20059;-58
2022/12/02 04:39:04;;;;;;;118.53;45.08;;;;;;;1.05;95.38;96208.13;2041410;29;20047;-59
2022/12/02 04:40:05;;;;;;;107.30;43.78;;;;;;;1.00;95.69;96217.53;2040714;29;20055;-58
2022/12/02 04:41:06;;;;;;;118.40;43.55;;;;;;;0.99;95.33;96216.69;2040847;29;20070;-58
2022/12/02 04:42:07;;;;;;;112.03;43.90;;;;;;;0.98;95.68;96209.00;2041058;29;20052;-54
2022/12/02 04:43:08;;;;;;;109.38;45.00;;;;;;;0.93;95.54;96197.97;2041146;29;20051;-55
2022/12/02 04:44:10;;;;;;;117.80;45.08;;;;;;;0.95;95.56;96215.00;2042459;29;20047;-55
2022/12/02 04:45:11;;;;;;;115.15;45.00;;;;;;;0.78;95.66;96186.13;2042821;29;20070;-54
2022/12/02 04:46:12;;;;;;;113.32;44.90;;;;;;;1.01;95.68;96207.28;2042613;29;20483;-54